Terminal Aerodrome Forecast
Issued by NWS Charleston, WV

Home | Current Version | Previous Version | Text Only | Print | Product List | Glossary On
Versions: 1 2 3 4 5 6 7 8 9 10 11 12 13 14 15 16 17 18 19 20
245
FTUS41 KRLX 271737
TAFCRW
TAF
KCRW 271737Z 2718/2818 24005KT P6SM VCSH OVC030
      TEMPO 2720/2722 VRB10G20KT 2SM TSRA OVC030CB
     FM280000 VRB02KT 5SM SHRA OVC035
     FM280500 VRB03KT 5SM BR OVC025
     FM280800 00000KT 5SM BR OVC017
     FM281000 00000KT 2SM BR OVC008
     FM281300 00000KT 3SM BR OVC015
     FM281600 24004KT 6SM -SHRA VCTS BKN024CB=

USA.gov is the U.S. government's official web portal to all federal, state and local government web resources and services.